Time;durP1;ratioP1;P1;durP2;ratioP2;P2;SDS_P1;SDS_P2;PMS_P1;PMS_P2;Temp;Humidity;BMP_temperature;BMP_pressure;BME280_temperature;BME280_humidity;BME280_pressure;Samples;Min_cycle;Max_cycle;Signal;HPM_P1;HPM_P2
2022/01/01 00:00:19;;;;;;;7.88;5.45;;;;;;;10.74;100.00;99538.19;5089207;28;20424;-76
2022/01/01 00:03:07;;;;;;;7.78;4.72;;;;;;;10.82;100.00;99546.69;5106618;27;20044;-76
2022/01/01 00:05:53;;;;;;;7.38;3.88;;;;;;;10.69;100.00;99543.59;5105840;27;20134;-77
2022/01/01 00:08:40;;;;;;;7.82;5.75;;;;;;;10.78;100.00;99555.53;5103250;28;20047;-76
2022/01/01 00:11:26;;;;;;;7.65;5.45;;;;;;;10.76;100.00;99552.97;5088907;28;20054;-78
2022/01/01 00:14:11;;;;;;;5.80;3.47;;;;;;;10.77;100.00;99561.69;5089086;28;20104;-77
2022/01/01 00:16:56;;;;;;;5.88;4.45;;;;;;;10.74;100.00;99567.84;5088953;28;20079;-77
2022/01/01 00:19:41;;;;;;;5.15;4.20;;;;;;;10.75;100.00;99568.72;5100255;28;20151;-77
2022/01/01 00:22:26;;;;;;;4.95;4.10;;;;;;;10.71;100.00;99570.56;5071523;28;20052;-77
2022/01/01 00:25:13;;;;;;;3.75;3.30;;;;;;;10.77;100.00;99574.78;5089001;28;20364;-77
2022/01/01 00:27:58;;;;;;;4.45;3.85;;;;;;;10.88;100.00;99580.53;5071884;28;20325;-78
2022/01/01 00:30:45;;;;;;;5.63;3.90;;;;;;;10.87;100.00;99586.69;5089012;28;20138;-76
2022/01/01 00:33:31;;;;;;;3.88;2.60;;;;;;;10.87;100.00;99589.31;5085380;28;20048;-77
2022/01/01 00:36:16;;;;;;;6.15;3.50;;;;;;;10.82;100.00;99586.00;5102641;28;20132;-77
2022/01/01 00:39:03;;;;;;;4.32;3.53;;;;;;;10.83;100.00;99589.47;5117719;28;20047;-77
2022/01/01 00:41:49;;;;;;;4.35;3.47;;;;;;;10.78;100.00;99592.19;5105859;27;20148;-77
2022/01/01 00:44:35;;;;;;;4.70;3.35;;;;;;;10.89;100.00;99599.75;5116715;28;20036;-78
2022/01/01 00:47:21;;;;;;;4.55;3.75;;;;;;;10.83;100.00;99607.81;5102442;28;20043;-77
2022/01/01 00:50:06;;;;;;;4.47;3.70;;;;;;;10.88;100.00;99600.66;5102429;28;20081;-78
2022/01/01 00:52:52;;;;;;;5.20;3.78;;;;;;;10.81;100.00;99604.34;5102049;28;20059;-78
2022/01/01 00:55:38;;;;;;;5.65;2.95;;;;;;;10.84;100.00;99610.38;5071673;28;20051;-78
2022/01/01 00:58:23;;;;;;;5.15;3.92;;;;;;;10.79;100.00;99614.00;5087953;28;20043;-78
2022/01/01 01:01:10;;;;;;;4.18;3.15;;;;;;;10.83;100.00;99623.53;5071349;28;20124;-77
2022/01/01 01:03:56;;;;;;;3.78;2.97;;;;;;;10.73;100.00;99625.53;5118971;27;20054;-78
2022/01/01 01:06:42;;;;;;;3.35;2.60;;;;;;;10.72;100.00;99639.53;5071253;28;20174;-78
2022/01/01 01:09:28;;;;;;;4.30;2.90;;;;;;;10.68;100.00;99638.75;5088098;28;20118;-78
2022/01/01 01:12:13;;;;;;;6.28;4.38;;;;;;;10.67;100.00;99638.81;5104528;27;20051;-77
2022/01/01 01:14:58;;;;;;;3.75;3.33;;;;;;;10.75;100.00;99644.69;5101995;28;20039;-78
2022/01/01 01:17:47;;;;;;;5.95;3.72;;;;;;;10.74;100.00;99643.81;5099256;28;20059;-78
2022/01/01 01:20:32;;;;;;;4.45;2.95;;;;;;;10.71;100.00;99650.91;5116844;28;20035;-78
2022/01/01 01:23:17;;;;;;;6.70;4.38;;;;;;;10.83;100.00;99647.09;5084538;28;20130;-78
2022/01/01 01:26:01;;;;;;;5.90;3.70;;;;;;;10.72;100.00;99640.41;5116904;28;20363;-78
2022/01/01 01:28:49;;;;;;;6.13;3.75;;;;;;;10.72;100.00;99639.53;5116969;28;20044;-78
2022/01/01 01:31:33;;;;;;;5.97;3.70;;;;;;;10.77;100.00;99638.50;5116580;28;20451;-77
2022/01/01 01:34:18;;;;;;;5.00;3.28;;;;;;;10.71;100.00;99636.06;5116745;28;20043;-77
2022/01/01 01:37:03;;;;;;;5.55;3.15;;;;;;;10.85;100.00;99646.13;5116829;28;20039;-78
2022/01/01 01:39:47;;;;;;;4.70;3.40;;;;;;;10.77;100.00;99650.75;5116611;28;20063;-78
2022/01/01 01:42:33;;;;;;;7.60;3.40;;;;;;;10.86;100.00;99654.88;5116568;28;20325;-78
2022/01/01 01:45:21;;;;;;;5.43;2.70;;;;;;;10.74;100.00;99659.53;5087250;28;20058;-77
2022/01/01 01:48:05;;;;;;;2.90;2.60;;;;;;;10.81;100.00;99665.47;5116498;28;20397;-77
2022/01/01 01:50:50;;;;;;;5.35;2.63;;;;;;;10.75;100.00;99653.41;5101337;28;20047;-77
2022/01/01 01:53:34;;;;;;;5.05;3.05;;;;;;;10.71;100.00;99656.16;5101339;28;20394;-78
2022/01/01 01:56:18;;;;;;;7.05;3.30;;;;;;;10.77;100.00;99650.75;5116342;28;20047;-77
2022/01/01 01:59:03;;;;;;;4.00;2.90;;;;;;;10.76;100.00;99664.75;5101458;28;20040;-78
2022/01/01 02:01:47;;;;;;;7.38;3.30;;;;;;;10.79;100.00;99661.16;5101517;28;20122;-78
2022/01/01 02:04:32;;;;;;;6.00;3.08;;;;;;;10.88;100.00;99677.50;5130104;28;20040;-78
2022/01/01 02:07:18;;;;;;;4.85;3.30;;;;;;;10.84;100.00;99673.25;5101325;28;20488;-77
2022/01/01 02:10:04;;;;;;;5.72;3.03;;;;;;;10.83;100.00;99668.06;5116346;28;20043;-77
2022/01/01 02:12:53;;;;;;;4.32;3.40;;;;;;;10.92;100.00;99670.41;5101308;28;20142;-77
2022/01/01 02:18:22;;;;;;;5.28;3.15;;;;;;;10.86;100.00;99665.34;5101183;28;20040;-77
2022/01/01 02:21:07;;;;;;;6.93;4.57;;;;;;;10.93;100.00;99673.00;5116169;28;20321;-77
2022/01/01 02:23:57;;;;;;;6.68;3.95;;;;;;;11.03;100.00;99678.81;5086850;28;20058;-77
2022/01/01 02:26:42;;;;;;;5.60;3.95;;;;;;;10.90;100.00;99677.47;5101131;28;20321;-77
2022/01/01 02:29:26;;;;;;;6.15;3.83;;;;;;;10.90;100.00;99674.84;5101065;28;20035;-77
2022/01/01 02:32:13;;;;;;;4.90;3.70;;;;;;;10.89;100.00;99675.75;5129782;28;20055;-78
2022/01/01 02:34:58;;;;;;;6.97;4.13;;;;;;;11.00;100.00;99685.00;5104010;28;20097;-77
2022/01/01 02:37:43;;;;;;;5.72;4.00;;;;;;;11.01;100.00;99691.09;5120031;28;20475;-77
2022/01/01 02:40:27;;;;;;;6.20;4.45;;;;;;;10.99;100.00;99685.91;5119986;28;20043;-77
2022/01/01 02:43:12;;;;;;;5.40;4.28;;;;;;;10.95;100.00;99686.91;5120045;28;20368;-78
2022/01/01 02:45:56;;;;;;;8.63;4.13;;;;;;;10.88;100.00;99674.88;5104747;28;20043;-78
2022/01/01 02:48:44;;;;;;;6.22;4.35;;;;;;;10.94;100.00;99692.19;5090514;28;20043;-78
2022/01/01 02:51:28;;;;;;;5.05;4.00;;;;;;;10.95;100.00;99699.13;5119494;28;20051;-78
2022/01/01 02:54:13;;;;;;;5.97;3.63;;;;;;;10.80;100.00;99678.63;5104649;28;20044;-78
2022/01/01 02:56:57;;;;;;;5.38;3.80;;;;;;;11.06;100.00;99701.47;5119740;28;20424;-78
2022/01/01 02:59:42;;;;;;;5.85;3.85;;;;;;;11.00;100.00;99718.22;5119893;28;20047;-77
2022/01/01 03:02:26;;;;;;;6.57;4.40;;;;;;;10.89;100.00;99700.19;5104410;28;20044;-77
2022/01/01 03:05:10;;;;;;;4.28;2.95;;;;;;;10.97;100.00;99694.72;5119596;28;20032;-77
2022/01/01 03:07:55;;;;;;;5.10;3.20;;;;;;;11.03;100.00;99704.19;5090283;28;20032;-77
2022/01/01 03:10:40;;;;;;;5.38;2.65;;;;;;;10.86;100.00;99691.56;5104226;28;20420;-77
2022/01/01 03:13:24;;;;;;;4.82;3.00;;;;;;;10.98;100.00;99713.03;5133008;27;20329;-78
2022/01/01 03:16:09;;;;;;;4.38;2.97;;;;;;;10.85;100.00;99684.56;5119317;28;20035;-77
2022/01/01 03:18:53;;;;;;;3.85;2.40;;;;;;;11.04;100.00;99708.50;5119423;28;20055;-77
2022/01/01 03:21:38;;;;;;;3.15;2.70;;;;;;;11.08;100.00;99711.00;5119226;28;20043;-77
2022/01/01 03:24:22;;;;;;;5.07;3.08;;;;;;;11.11;100.00;99712.66;5089758;28;20353;-77
2022/01/01 03:27:07;;;;;;;4.55;2.97;;;;;;;11.06;100.00;99714.56;5104024;28;20036;-78
2022/01/01 03:29:51;;;;;;;3.53;2.75;;;;;;;10.94;100.00;99707.91;5104004;28;20321;-77
2022/01/01 03:32:35;;;;;;;4.90;2.90;;;;;;;10.97;100.00;99713.91;5103812;28;20047;-77
2022/01/01 03:35:20;;;;;;;2.92;2.47;;;;;;;10.98;100.00;99718.28;5103948;28;20048;-77
2022/01/01 03:38:05;;;;;;;7.10;3.28;;;;;;;10.99;100.00;99717.38;5101124;28;20055;-77
2022/01/01 03:40:49;;;;;;;3.58;2.78;;;;;;;11.02;100.00;99713.81;5118917;28;20049;-77
2022/01/01 03:43:34;;;;;;;4.43;3.63;;;;;;;10.93;100.00;99700.97;5103699;28;20039;-77
2022/01/01 03:46:18;;;;;;;2.53;2.33;;;;;;;11.02;100.00;99716.44;5103160;28;20039;-77
2022/01/01 03:49:02;;;;;;;3.88;2.80;;;;;;;11.07;100.00;99726.78;5118690;28;20359;-77
2022/01/01 03:51:47;;;;;;;4.28;3.10;;;;;;;10.98;100.00;99728.75;5118360;28;20052;-77
2022/01/01 03:54:32;;;;;;;5.15;3.65;;;;;;;10.87;100.00;99724.72;5118521;28;20313;-77
2022/01/01 03:57:16;;;;;;;5.10;4.25;;;;;;;10.94;100.00;99719.25;5103568;28;20040;-77
2022/01/01 04:00:01;;;;;;;3.60;3.05;;;;;;;10.95;100.00;99717.47;5103412;28;20046;-78
2022/01/01 04:02:46;;;;;;;3.45;2.97;;;;;;;11.05;100.00;99733.81;5103361;28;20119;-78
2022/01/01 04:05:30;;;;;;;4.75;3.35;;;;;;;10.99;100.00;99740.09;5103214;28;20036;-78
2022/01/01 04:08:15;;;;;;;4.35;3.75;;;;;;;10.95;100.00;99720.09;5088906;28;20117;-77
2022/01/01 04:11:00;;;;;;;3.78;3.40;;;;;;;10.99;100.00;99743.56;5100568;28;20081;-78
2022/01/01 04:13:44;;;;;;;4.65;3.28;;;;;;;11.04;100.00;99739.97;5118285;28;20454;-78
2022/01/01 04:16:28;;;;;;;4.50;3.10;;;;;;;11.02;100.00;99755.75;5118153;28;20040;-77
2022/01/01 04:19:12;;;;;;;5.65;4.20;;;;;;;11.05;100.00;99766.13;5103073;28;20092;-78
2022/01/01 04:21:57;;;;;;;4.55;3.70;;;;;;;10.96;100.00;99751.53;5088904;28;20047;-77
2022/01/01 04:24:41;;;;;;;3.83;3.40;;;;;;;11.03;100.00;99753.97;5102890;28;20497;-77
2022/01/01 04:27:26;;;;;;;3.80;3.30;;;;;;;11.08;100.00;99755.56;5102853;28;20044;-77
2022/01/01 04:30:10;;;;;;;6.18;3.78;;;;;;;10.99;100.00;99746.19;5117898;28;20039;-77
2022/01/01 04:32:55;;;;;;;4.82;3.10;;;;;;;11.17;100.00;99764.91;5102803;28;20046;-78
2022/01/01 04:35:40;;;;;;;4.97;3.50;;;;;;;11.06;100.00;99752.13;5117789;28;20047;-78
2022/01/01 04:38:39;;;;;;;4.82;3.65;;;;;;;11.07;100.00;99755.59;5102605;28;20348;-77
2022/01/01 04:41:23;;;;;;;4.40;3.30;;;;;;;10.99;100.00;99763.69;5102551;28;20051;-77
2022/01/01 04:44:08;;;;;;;6.13;4.03;;;;;;;11.11;100.00;99772.94;5102619;28;20469;-77
2022/01/01 04:46:52;;;;;;;4.75;3.28;;;;;;;11.10;100.00;99797.44;5102614;28;20068;-77
2022/01/01 04:49:37;;;;;;;4.45;3.17;;;;;;;11.12;100.00;99779.94;5088086;28;20607;-77
2022/01/01 04:52:21;;;;;;;4.85;2.90;;;;;;;11.11;100.00;99771.19;5102078;28;20126;-78
2022/01/01 04:55:06;;;;;;;3.65;3.20;;;;;;;11.18;100.00;99785.00;5117538;28;20093;-78
2022/01/01 04:57:50;;;;;;;8.32;3.85;;;;;;;11.18;100.00;99796.34;5101578;28;20039;-78
2022/01/01 05:00:35;;;;;;;6.32;3.50;;;;;;;11.15;100.00;99804.31;5117242;28;20092;-78
2022/01/01 05:03:19;;;;;;;4.20;3.22;;;;;;;11.13;100.00;99800.84;5102172;28;20043;-78
2022/01/01 05:06:04;;;;;;;6.40;3.95;;;;;;;11.17;100.00;99815.56;5102140;28;20367;-77
2022/01/01 05:08:48;;;;;;;4.63;2.88;;;;;;;11.22;100.00;99815.47;5131030;27;20043;-78
2022/01/01 05:11:33;;;;;;;6.22;3.30;;;;;;;11.30;100.00;99820.50;5116956;28;20054;-77
2022/01/01 05:14:17;;;;;;;4.05;3.35;;;;;;;11.06;100.00;99799.31;5116904;28;20040;-78
2022/01/01 05:17:02;;;;;;;4.07;3.55;;;;;;;11.25;100.00;99806.66;5102029;28;20039;-77
2022/01/01 05:19:46;;;;;;;5.07;3.67;;;;;;;11.11;100.00;99821.00;5117045;28;20110;-77
2022/01/01 05:22:30;;;;;;;5.45;3.65;;;;;;;11.08;100.00;99814.97;5087560;28;20040;-77
2022/01/01 05:25:15;;;;;;;6.40;4.13;;;;;;;11.16;100.00;99823.50;5087632;28;20071;-77
2022/01/01 05:27:59;;;;;;;5.72;3.55;;;;;;;11.15;100.00;99827.03;5101859;28;20040;-78
2022/01/01 05:30:43;;;;;;;4.30;3.30;;;;;;;11.11;100.00;99826.22;5084847;28;20052;-77
2022/01/01 05:33:27;;;;;;;5.88;3.88;;;;;;;11.10;100.00;99821.03;5101647;28;20039;-77
2022/01/01 05:36:13;;;;;;;8.00;4.97;;;;;;;11.21;100.00;99835.59;5101664;28;20040;-77
2022/01/01 05:38:57;;;;;;;6.38;4.30;;;;;;;11.16;100.00;99837.47;5087368;28;20039;-77
2022/01/01 05:41:42;;;;;;;7.05;4.28;;;;;;;11.14;100.00;99843.66;5101642;28;20043;-78
2022/01/01 05:44:27;;;;;;;5.65;3.60;;;;;;;11.20;100.00;99843.47;5084516;28;20051;-77
2022/01/01 05:47:11;;;;;;;4.47;3.28;;;;;;;11.11;100.00;99835.84;5116616;28;20046;-77
2022/01/01 05:49:58;;;;;;;4.50;3.83;;;;;;;11.20;100.00;99833.84;5101552;28;20039;-77
2022/01/01 05:52:43;;;;;;;5.15;3.75;;;;;;;11.23;100.00;99852.13;5116240;28;20052;-77
2022/01/01 05:55:28;;;;;;;6.18;3.30;;;;;;;11.15;100.00;99855.88;5101397;28;20036;-77
2022/01/01 05:58:12;;;;;;;5.53;3.42;;;;;;;11.22;100.00;99844.31;5101456;28;20128;-77
2022/01/01 06:00:57;;;;;;;5.93;3.90;;;;;;;11.25;100.00;99848.63;5130023;28;20046;-77
2022/01/01 06:03:41;;;;;;;4.18;3.35;;;;;;;11.15;100.00;99851.47;5116422;28;20040;-77
2022/01/01 06:06:26;;;;;;;5.40;3.20;;;;;;;11.12;100.00;99848.94;5116425;28;20032;-77
2022/01/01 06:09:10;;;;;;;5.15;3.47;;;;;;;11.19;100.00;99857.50;5104821;28;20385;-77
2022/01/01 06:11:54;;;;;;;5.78;3.35;;;;;;;11.17;100.00;99865.38;5105367;28;20356;-77
2022/01/01 06:14:39;;;;;;;4.45;3.35;;;;;;;11.21;100.00;99861.81;5120506;28;20036;-77
2022/01/01 06:17:24;;;;;;;7.95;3.67;;;;;;;11.19;100.00;99868.00;5119533;28;20043;-77
2022/01/01 06:20:09;;;;;;;4.38;3.30;;;;;;;11.25;100.00;99872.22;5120569;28;20066;-77
2022/01/01 06:22:53;;;;;;;4.97;3.50;;;;;;;11.16;100.00;99886.41;5120398;28;20107;-77
2022/01/01 06:25:37;;;;;;;5.65;3.50;;;;;;;11.13;100.00;99876.00;5105153;28;20040;-77
2022/01/01 06:28:22;;;;;;;4.93;2.90;;;;;;;11.04;100.00;99865.75;5090811;28;20043;-77
2022/01/01 06:31:07;;;;;;;3.30;2.20;;;;;;;11.19;100.00;99878.47;5119710;28;20040;-78
2022/01/01 06:33:51;;;;;;;5.07;2.75;;;;;;;11.20;100.00;99882.81;5133181;27;20040;-78
2022/01/01 06:36:36;;;;;;;6.45;2.92;;;;;;;11.20;100.00;99886.28;5103175;28;20040;-78
2022/01/01 06:39:21;;;;;;;2.88;2.40;;;;;;;11.18;100.00;99892.50;5118172;28;20043;-78
2022/01/01 06:42:05;;;;;;;3.83;2.10;;;;;;;11.20;100.00;99891.53;5105607;27;20058;-78
2022/01/01 06:44:50;;;;;;;3.60;2.20;;;;;;;11.12;100.00;99888.25;5102971;28;20044;-78
2022/01/01 06:47:34;;;;;;;4.20;2.05;;;;;;;11.19;100.00;99902.06;5102825;28;20492;-78
2022/01/01 06:50:18;;;;;;;5.40;2.75;;;;;;;11.14;100.00;99904.78;5103354;28;20039;-78
2022/01/01 06:53:03;;;;;;;2.58;1.80;;;;;;;11.27;100.00;99907.97;5088338;28;20035;-78
2022/01/01 06:55:48;;;;;;;5.22;2.65;;;;;;;11.23;100.00;99914.19;5102768;28;20039;-78
2022/01/01 06:58:37;;;;;;;5.13;2.80;;;;;;;11.11;100.00;99902.25;5102643;28;20051;-78
2022/01/01 07:01:21;;;;;;;2.33;2.03;;;;;;;11.19;100.00;99910.78;5102365;28;20042;-77
2022/01/01 07:04:06;;;;;;;3.45;2.45;;;;;;;11.14;100.00;99932.78;5116743;28;20036;-78
2022/01/01 07:06:50;;;;;;;3.78;2.30;;;;;;;11.16;100.00;99918.72;5103803;28;20040;-77
2022/01/01 07:09:35;;;;;;;4.15;2.13;;;;;;;11.17;100.00;99912.56;5089972;28;20104;-77
2022/01/01 07:12:19;;;;;;;3.25;2.35;;;;;;;11.15;100.00;99931.91;5104210;28;20432;-77
2022/01/01 07:15:05;;;;;;;3.35;2.13;;;;;;;11.17;100.00;99924.84;5120092;28;20054;-77
2022/01/01 07:17:49;;;;;;;3.20;2.53;;;;;;;11.10;100.00;99921.50;5133246;27;20351;-78
2022/01/01 07:20:33;;;;;;;3.95;2.35;;;;;;;11.09;100.00;99914.56;5118605;28;20071;-77
2022/01/01 07:23:18;;;;;;;4.13;2.45;;;;;;;11.17;100.00;99930.06;5133371;27;20051;-78
2022/01/01 07:26:03;;;;;;;3.20;2.15;;;;;;;11.09;100.00;99929.41;5104799;28;20043;-78
2022/01/01 07:28:47;;;;;;;3.75;2.70;;;;;;;11.16;100.00;99918.72;5119227;28;20040;-78
2022/01/01 07:31:32;;;;;;;3.08;1.92;;;;;;;11.14;100.00;99931.00;5104114;28;20089;-78
2022/01/01 07:34:16;;;;;;;3.83;2.10;;;;;;;11.30;100.00;99949.84;5090418;28;20089;-78
2022/01/01 07:37:01;;;;;;;19.63;14.77;;;;;;;11.36;100.00;99956.69;5104035;28;20382;-77
2022/01/01 07:39:45;;;;;;;7.93;5.20;;;;;;;11.28;100.00;99946.41;5103963;28;20492;-77
2022/01/01 07:42:30;;;;;;;61.00;47.08;;;;;;;11.31;100.00;99951.56;5090116;28;20043;-77
2022/01/01 07:45:14;;;;;;;120.28;89.10;;;;;;;11.32;100.00;99960.28;5103843;28;20036;-78
2022/01/01 07:47:58;;;;;;;14.45;11.60;;;;;;;11.33;100.00;99959.38;5119335;28;20046;-77
2022/01/01 07:50:43;;;;;;;66.97;60.00;;;;;;;11.35;100.00;99950.59;5103509;28;20514;-78
2022/01/01 07:53:27;;;;;;;50.92;45.88;;;;;;;11.37;100.00;99951.38;5132488;27;20329;-78
2022/01/01 07:56:12;;;;;;;115.07;103.18;;;;;;;11.24;100.00;99952.59;5103664;28;20040;-78
2022/01/01 07:58:56;;;;;;;305.20;262.92;;;;;;;11.25;100.00;99958.75;5089511;28;20039;-77
2022/01/01 08:01:43;;;;;;;509.38;196.27;;;;;;;11.30;100.00;99964.72;5103819;28;20040;-78
2022/01/01 08:04:27;;;;;;;174.23;140.35;;;;;;;11.35;100.00;99965.47;5118537;28;20059;-77
2022/01/01 08:07:11;;;;;;;124.40;94.88;;;;;;;11.36;100.00;99961.94;5118760;28;20317;-77
2022/01/01 08:09:56;;;;;;;144.07;109.28;;;;;;;11.39;100.00;99965.34;5132772;27;20060;-77
2022/01/01 08:12:41;;;;;;;95.43;49.33;;;;;;;11.39;100.00;99980.22;5105737;27;20109;-77
2022/01/01 08:15:25;;;;;;;18.45;15.50;;;;;;;11.31;100.00;99955.94;5100561;28;20056;-77
2022/01/01 08:18:09;;;;;;;161.73;60.60;;;;;;;11.47;100.00;99959.88;5118499;28;20101;-77
2022/01/01 08:20:54;;;;;;;22.00;10.55;;;;;;;11.49;100.00;99981.69;5118765;28;20371;-77
2022/01/01 08:23:38;;;;;;;250.27;99.38;;;;;;;11.50;100.00;99974.69;5117457;28;20398;-77
2022/01/01 08:26:22;;;;;;;134.43;51.80;;;;;;;11.45;100.00;99974.81;5118250;28;20043;-77
2022/01/01 08:29:07;;;;;;;128.13;51.92;;;;;;;11.54;100.00;99979.81;5089149;28;20036;-77
2022/01/01 08:31:51;;;;;;;76.60;26.67;;;;;;;11.43;100.00;99977.47;5117066;28;20035;-77
2022/01/01 08:34:36;;;;;;;118.47;42.58;;;;;;;11.43;100.00;99982.69;5102867;28;20055;-77
2022/01/01 08:37:21;;;;;;;32.45;12.07;;;;;;;11.42;100.00;99985.38;5085928;28;20435;-77
2022/01/01 08:40:06;;;;;;;61.42;24.40;;;;;;;11.36;100.00;99988.16;5088587;28;20043;-77
2022/01/01 08:42:51;;;;;;;28.45;11.90;;;;;;;11.51;100.00;99990.38;5102679;28;20047;-76
2022/01/01 08:45:37;;;;;;;22.98;12.43;;;;;;;11.41;100.00;99991.53;5103041;28;20043;-76
2022/01/01 08:48:22;;;;;;;20.45;10.52;;;;;;;11.34;100.00;100003.06;5117967;28;20051;-76
2022/01/01 08:51:16;;;;;;;30.17;17.70;;;;;;;11.48;100.00;100000.97;5102336;28;20054;-76
2022/01/01 08:54:01;;;;;;;15.25;6.55;;;;;;;11.41;100.00;100002.03;5117531;28;20043;-76
2022/01/01 08:56:45;;;;;;;10.85;5.93;;;;;;;11.41;100.00;99987.16;5102953;28;20035;-76
2022/01/01 08:59:29;;;;;;;7.72;4.82;;;;;;;11.56;100.00;99998.97;5118034;28;20126;-76
2022/01/01 09:02:14;;;;;;;17.08;11.02;;;;;;;11.51;100.00;100007.91;5102871;28;20044;-76
2022/01/01 09:04:58;;;;;;;16.75;9.90;;;;;;;11.56;100.00;100019.97;5117671;28;20040;-76
2022/01/01 09:07:43;;;;;;;18.27;11.73;;;;;;;11.52;100.00;100023.59;5088220;28;20039;-77
2022/01/01 09:10:28;;;;;;;15.65;8.35;;;;;;;11.58;100.00;100027.81;5117501;28;20032;-76
2022/01/01 09:13:12;;;;;;;12.63;8.75;;;;;;;11.48;100.00;100019.31;5117112;28;20348;-76
2022/01/01 09:15:58;;;;;;;10.00;6.32;;;;;;;11.48;100.00;100027.19;5087823;28;20044;-76
2022/01/01 09:18:44;;;;;;;11.98;8.07;;;;;;;11.55;100.00;100038.38;5102020;28;20066;-76
2022/01/01 09:21:28;;;;;;;9.82;3.70;;;;;;;11.62;100.00;100037.31;5087886;28;20036;-76
2022/01/01 09:24:12;;;;;;;24.48;14.85;;;;;;;11.60;100.00;100050.50;5116948;28;20108;-76
2022/01/01 09:26:56;;;;;;;23.92;18.45;;;;;;;11.53;100.00;100042.78;5101795;28;20036;-78
2022/01/01 09:29:40;;;;;;;9.80;6.70;;;;;;;11.54;100.00;100065.53;5116231;28;20044;-77
2022/01/01 09:32:25;;;;;;;13.20;7.72;;;;;;;11.53;100.00;100059.41;5114737;28;20032;-76
2022/01/01 09:35:11;;;;;;;9.80;5.47;;;;;;;11.49;100.00;100046.41;5085828;28;20042;-77
2022/01/01 09:37:55;;;;;;;13.80;7.75;;;;;;;11.46;100.00;100047.34;5115242;28;20040;-76
2022/01/01 09:40:40;;;;;;;8.68;5.70;;;;;;;11.47;100.00;100041.19;5115237;28;20035;-77
2022/01/01 09:43:25;;;;;;;8.18;4.95;;;;;;;11.49;100.00;100038.53;5099720;28;20067;-77
2022/01/01 09:46:13;;;;;;;12.95;6.30;;;;;;;11.58;100.00;100062.78;5100537;28;20036;-77
2022/01/01 09:48:58;;;;;;;10.25;5.85;;;;;;;11.57;100.00;100050.56;5114681;28;20101;-76
2022/01/01 09:51:43;;;;;;;19.38;13.63;;;;;;;11.61;100.00;100061.84;5114386;28;20052;-77
2022/01/01 09:54:30;;;;;;;13.73;8.13;;;;;;;11.60;100.00;100067.97;5099897;28;20107;-77
2022/01/01 09:57:15;;;;;;;12.40;6.70;;;;;;;11.46;100.00;100057.81;5114595;28;20047;-77
2022/01/01 09:59:59;;;;;;;6.95;4.68;;;;;;;11.52;100.00;100055.06;5085182;28;20063;-77
2022/01/01 10:02:44;;;;;;;8.85;4.75;;;;;;;11.52;100.00;100062.94;5115759;28;20043;-77
2022/01/01 10:05:28;;;;;;;16.33;9.73;;;;;;;11.41;100.00;100062.34;5101882;28;20051;-77
2022/01/01 10:08:23;;;;;;;6.55;4.05;;;;;;;11.39;100.00;100074.63;5130336;28;20054;-77
2022/01/01 10:11:08;;;;;;;245.57;156.18;;;;;;;11.52;100.00;100077.81;5116216;28;20050;-77
2022/01/01 10:13:53;;;;;;;277.70;177.90;;;;;;;11.58;100.00;100075.91;5101679;28;20118;-77
2022/01/01 10:16:42;;;;;;;90.60;60.30;;;;;;;11.67;100.00;100065.16;5101424;28;20380;-77
2022/01/01 10:19:30;;;;;;;25.42;20.40;;;;;;;11.66;100.00;100055.56;5116347;28;20044;-77
2022/01/01 10:22:17;;;;;;;16.55;12.85;;;;;;;11.94;100.00;100073.25;5101702;28;20050;-77
2022/01/01 10:28:10;;;;;;;5.75;3.88;;;;;;;12.11;100.00;100075.44;5116262;28;20043;-77
2022/01/01 10:30:56;;;;;;;11.77;6.75;;;;;;;12.13;100.00;100086.75;5116437;28;20055;-77
2022/01/01 10:33:45;;;;;;;24.58;11.98;;;;;;;12.15;100.00;100080.56;5116163;28;20039;-77
2022/01/01 10:36:32;;;;;;;19.05;6.90;;;;;;;12.21;100.00;100087.41;5101202;28;20039;-77
2022/01/01 10:39:21;;;;;;;9.90;4.10;;;;;;;12.13;100.00;100079.75;5130478;28;20035;-77
2022/01/01 10:42:12;;;;;;;11.32;3.60;;;;;;;11.96;100.00;100100.34;5115475;28;20043;-77
2022/01/01 10:44:57;;;;;;;55.75;24.30;;;;;;;11.99;100.00;100091.50;5101671;28;20090;-77
2022/01/01 10:47:42;;;;;;;32.55;17.30;;;;;;;12.03;100.00;100093.16;5116092;28;20360;-77
2022/01/01 10:50:35;;;;;;;51.80;28.13;;;;;;;11.85;100.00;100084.00;5116642;28;20051;-77
2022/01/01 10:53:22;;;;;;;57.70;32.87;;;;;;;11.96;100.00;100097.72;5115992;28;20040;-76
2022/01/01 10:56:18;;;;;;;35.55;17.05;;;;;;;11.90;100.00;100101.34;5089963;28;20081;-77
2022/01/01 10:59:03;;;;;;;13.98;8.02;;;;;;;11.74;100.00;100102.63;5120112;28;20040;-77
2022/01/01 11:01:56;;;;;;;79.95;41.55;;;;;;;11.81;100.00;100109.44;5105192;28;20039;-78
2022/01/01 11:04:41;;;;;;;110.60;72.20;;;;;;;11.83;100.00;100105.00;5120273;28;20408;-78
2022/01/01 11:07:29;;;;;;;15.32;11.98;;;;;;;11.80;100.00;100106.84;5120244;28;20062;-77
2022/01/01 11:10:14;;;;;;;12.10;10.82;;;;;;;11.59;100.00;100103.84;5104502;28;20362;-77
2022/01/01 11:13:00;;;;;;;28.42;18.73;;;;;;;11.68;100.00;100114.13;5104892;28;20035;-78
2022/01/01 11:15:45;;;;;;;26.92;17.40;;;;;;;11.62;100.00;100111.63;5104690;28;20047;-78
2022/01/01 11:18:31;;;;;;;20.10;15.38;;;;;;;11.57;100.00;100121.41;5104883;28;20517;-77
2022/01/01 11:21:18;;;;;;;74.43;46.78;;;;;;;11.45;100.00;100104.19;5090587;28;20041;-78
2022/01/01 11:24:03;;;;;;;106.90;72.53;;;;;;;11.52;100.00;100115.38;5119357;28;20356;-78
2022/01/01 11:26:49;;;;;;;27.77;20.95;;;;;;;11.58;100.00;100110.00;5119574;28;20043;-78
2022/01/01 11:29:35;;;;;;;9.88;8.10;;;;;;;11.54;100.00;100136.34;5119187;28;20047;-78
2022/01/01 11:32:21;;;;;;;7.75;3.83;;;;;;;11.58;100.00;100120.50;5104250;28;20100;-78
2022/01/01 11:35:18;;;;;;;17.20;11.20;;;;;;;11.57;100.00;100120.50;5103912;28;20059;-78
2022/01/01 11:38:13;;;;;;;13.27;6.80;;;;;;;11.55;100.00;100122.31;5118985;28;20037;-78
2022/01/01 11:41:05;;;;;;;56.25;27.67;;;;;;;11.54;100.00;100120.63;5119034;28;20063;-78
2022/01/01 11:43:54;;;;;;;18.13;11.40;;;;;;;11.52;100.00;100112.75;5089708;28;20043;-78
2022/01/01 11:46:56;;;;;;;13.18;6.47;;;;;;;11.51;100.00;100125.94;5132681;27;20701;-77
2022/01/01 11:49:41;;;;;;;10.23;6.07;;;;;;;11.51;100.00;100125.94;5103687;28;20493;-77
2022/01/01 11:52:35;;;;;;;13.00;6.68;;;;;;;11.37;100.00;100128.84;5118631;28;20123;-78
2022/01/01 11:55:20;;;;;;;10.48;5.32;;;;;;;11.24;100.00;100117.78;5090015;28;20054;-78
2022/01/01 11:58:11;;;;;;;13.25;6.50;;;;;;;11.29;100.00;100133.44;5103818;28;20052;-78
2022/01/01 12:00:56;;;;;;;9.38;4.85;;;;;;;11.36;100.00;100135.00;5103572;28;20416;-78
2022/01/01 12:03:52;;;;;;;18.83;9.50;;;;;;;11.30;100.00;100133.38;5118938;28;20135;-77
2022/01/01 12:06:37;;;;;;;19.80;10.32;;;;;;;11.32;100.00;100135.97;5103483;28;20051;-78
2022/01/01 12:09:22;;;;;;;12.80;5.68;;;;;;;11.45;100.00;100142.66;5089630;28;20412;-78
2022/01/01 12:12:07;;;;;;;19.92;7.43;;;;;;;11.30;100.00;100143.88;5103246;28;20039;-78
2022/01/01 12:14:51;;;;;;;13.73;7.05;;;;;;;11.41;100.00;100146.28;5103907;28;20051;-78
2022/01/01 12:17:42;;;;;;;11.95;4.53;;;;;;;11.27;100.00;100129.97;5118303;28;20393;-78
2022/01/01 12:20:35;;;;;;;12.10;6.18;;;;;;;11.38;100.00;100146.34;5103406;28;20044;-78
2022/01/01 12:23:21;;;;;;;17.63;8.20;;;;;;;11.36;100.00;100138.50;5103113;28;20378;-78
2022/01/01 12:26:08;;;;;;;21.65;9.73;;;;;;;11.50;100.00;100146.03;5118125;28;20044;-78
2022/01/01 12:28:53;;;;;;;18.52;9.95;;;;;;;11.45;100.00;100145.28;5103272;28;20044;-78
2022/01/01 12:31:54;;;;;;;16.08;7.88;;;;;;;11.51;100.00;100144.28;5118517;28;20093;-78
2022/01/01 12:34:39;;;;;;;14.75;6.13;;;;;;;11.61;100.00;100138.78;5117922;28;20036;-78
2022/01/01 12:37:36;;;;;;;14.23;6.47;;;;;;;11.59;100.00;100145.81;5103378;28;20040;-78
2022/01/01 12:40:24;;;;;;;11.20;7.00;;;;;;;11.70;100.00;100135.94;5103085;28;20043;-78
2022/01/01 12:43:10;;;;;;;15.10;6.57;;;;;;;11.67;100.00;100146.50;5118061;28;20118;-78
2022/01/01 12:45:56;;;;;;;15.45;7.60;;;;;;;11.71;100.00;100149.91;5117795;28;20386;-77